sensor_id;sensor_type;location;lat;lon;timestamp;temperature;humidity
67194;DHT22;54121;53.508;49.422;2023-05-03T00:00:25;19.30;50.70
67194;DHT22;54121;53.508;49.422;2023-05-03T00:02:52;19.30;50.70
67194;DHT22;54121;53.508;49.422;2023-05-03T00:05:18;19.20;51.00
67194;DHT22;54121;53.508;49.422;2023-05-03T00:07:47;19.20;51.40
67194;DHT22;54121;53.508;49.422;2023-05-03T00:10:16;19.30;50.80
67194;DHT22;54121;53.508;49.422;2023-05-03T00:12:44;19.50;50.20
67194;DHT22;54121;53.508;49.422;2023-05-03T00:15:11;19.20;50.80
67194;DHT22;54121;53.508;49.422;2023-05-03T00:17:38;19.30;50.90
67194;DHT22;54121;53.508;49.422;2023-05-03T00:20:09;19.30;50.70
67194;DHT22;54121;53.508;49.422;2023-05-03T00:22:39;19.30;50.70
67194;DHT22;54121;53.508;49.422;2023-05-03T00:25:08;19.30;50.80
67194;DHT22;54121;53.508;49.422;2023-05-03T00:27:35;19.30;50.80
67194;DHT22;54121;53.508;49.422;2023-05-03T00:30:01;19.30;50.70
67194;DHT22;54121;53.508;49.422;2023-05-03T00:32:30;19.40;50.60
67194;DHT22;54121;53.508;49.422;2023-05-03T00:34:56;19.30;50.50
67194;DHT22;54121;53.508;49.422;2023-05-03T00:37:25;19.20;51.00
67194;DHT22;54121;53.508;49.422;2023-05-03T00:39:52;19.30;50.70
67194;DHT22;54121;53.508;49.422;2023-05-03T00:42:18;19.50;50.30
67194;DHT22;54121;53.508;49.422;2023-05-03T00:44:48;19.50;50.40
67194;DHT22;54121;53.508;49.422;2023-05-03T00:47:19;19.60;49.90
67194;DHT22;54121;53.508;49.422;2023-05-03T00:49:48;19.50;50.00
67194;DHT22;54121;53.508;49.422;2023-05-03T00:52:16;19.60;50.10
67194;DHT22;54121;53.508;49.422;2023-05-03T00:54:45;19.50;50.10
67194;DHT22;54121;53.508;49.422;2023-05-03T00:57:11;19.60;50.00
67194;DHT22;54121;53.508;49.422;2023-05-03T00:59:40;19.60;50.90
67194;DHT22;54121;53.508;49.422;2023-05-03T01:02:09;19.50;50.00
67194;DHT22;54121;53.508;49.422;2023-05-03T01:04:37;19.50;50.20
67194;DHT22;54121;53.508;49.422;2023-05-03T01:07:22;19.60;50.00
67194;DHT22;54121;53.508;49.422;2023-05-03T01:10:02;19.50;51.40
67194;DHT22;54121;53.508;49.422;2023-05-03T01:12:42;19.40;50.50
67194;DHT22;54121;53.508;49.422;2023-05-03T01:15:12;19.30;50.60
67194;DHT22;54121;53.508;49.422;2023-05-03T01:18:02;19.50;50.20
67194;DHT22;54121;53.508;49.422;2023-05-03T01:20:31;19.40;50.50
67194;DHT22;54121;53.508;49.422;2023-05-03T01:23:35;19.40;50.20
67194;DHT22;54121;53.508;49.422;2023-05-03T01:25:54;19.50;50.10
67194;DHT22;54121;53.508;49.422;2023-05-03T01:28:22;19.50;50.00
67194;DHT22;54121;53.508;49.422;2023-05-03T01:30:51;19.50;49.80
67194;DHT22;54121;53.508;49.422;2023-05-03T01:35:52;19.40;50.20
67194;DHT22;54121;53.508;49.422;2023-05-03T01:38:22;19.40;50.50
67194;DHT22;54121;53.508;49.422;2023-05-03T01:40:49;19.40;50.30
67194;DHT22;54121;53.508;49.422;2023-05-03T01:43:16;19.50;50.10
67194;DHT22;54121;53.508;49.422;2023-05-03T01:45:45;19.50;50.20
67194;DHT22;54121;53.508;49.422;2023-05-03T01:48:14;19.50;50.00
67194;DHT22;54121;53.508;49.422;2023-05-03T01:50:43;19.50;50.20
67194;DHT22;54121;53.508;49.422;2023-05-03T01:53:15;19.60;50.10
67194;DHT22;54121;53.508;49.422;2023-05-03T01:55:44;19.60;50.20
67194;DHT22;54121;53.508;49.422;2023-05-03T01:58:12;19.60;50.10
67194;DHT22;54121;53.508;49.422;2023-05-03T02:00:41;19.70;49.80
67194;DHT22;54121;53.508;49.422;2023-05-03T02:03:09;19.70;49.80
67194;DHT22;54121;53.508;49.422;2023-05-03T02:05:35;19.80;49.30
67194;DHT22;54121;53.508;49.422;2023-05-03T02:08:02;19.90;49.30
67194;DHT22;54121;53.508;49.422;2023-05-03T02:10:28;20.20;48.40
67194;DHT22;54121;53.508;49.422;2023-05-03T02:12:54;20.40;47.60
67194;DHT22;54121;53.508;49.422;2023-05-03T02:15:21;20.60;46.80
67194;DHT22;54121;53.508;49.422;2023-05-03T02:17:49;20.80;46.20
67194;DHT22;54121;53.508;49.422;2023-05-03T02:20:19;20.90;46.20
67194;DHT22;54121;53.508;49.422;2023-05-03T02:22:48;21.00;45.80
67194;DHT22;54121;53.508;49.422;2023-05-03T02:25:14;21.10;45.40
67194;DHT22;54121;53.508;49.422;2023-05-03T02:27:42;21.40;44.20
67194;DHT22;54121;53.508;49.422;2023-05-03T02:30:11;21.30;44.50
67194;DHT22;54121;53.508;49.422;2023-05-03T02:32:38;21.60;43.90
67194;DHT22;54121;53.508;49.422;2023-05-03T02:35:06;21.60;43.60
67194;DHT22;54121;53.508;49.422;2023-05-03T02:37:33;21.60;43.50
67194;DHT22;54121;53.508;49.422;2023-05-03T02:40:05;21.90;43.80
67194;DHT22;54121;53.508;49.422;2023-05-03T02:42:34;22.00;42.30
67194;DHT22;54121;53.508;49.422;2023-05-03T02:45:03;22.00;42.40
67194;DHT22;54121;53.508;49.422;2023-05-03T02:47:31;22.40;41.30
67194;DHT22;54121;53.508;49.422;2023-05-03T02:50:00;22.30;41.70
67194;DHT22;54121;53.508;49.422;2023-05-03T02:52:28;22.20;41.40
67194;DHT22;54121;53.508;49.422;2023-05-03T02:54:57;22.50;40.80
67194;DHT22;54121;53.508;49.422;2023-05-03T02:57:25;22.40;41.10
67194;DHT22;54121;53.508;49.422;2023-05-03T02:59:51;22.50;40.90
67194;DHT22;54121;53.508;49.422;2023-05-03T03:02:20;23.00;39.10
67194;DHT22;54121;53.508;49.422;2023-05-03T03:04:53;23.10;39.00
67194;DHT22;54121;53.508;49.422;2023-05-03T03:07:22;23.00;38.80
67194;DHT22;54121;53.508;49.422;2023-05-03T03:09:48;22.70;39.80
67194;DHT22;54121;53.508;49.422;2023-05-03T03:12:14;22.80;39.40
67194;DHT22;54121;53.508;49.422;2023-05-03T03:14:41;22.80;40.10
67194;DHT22;54121;53.508;49.422;2023-05-03T03:17:10;23.40;38.40
67194;DHT22;54121;53.508;49.422;2023-05-03T03:19:37;23.40;38.20
67194;DHT22;54121;53.508;49.422;2023-05-03T03:22:04;23.30;38.40
67194;DHT22;54121;53.508;49.422;2023-05-03T03:24:30;23.50;37.80
67194;DHT22;54121;53.508;49.422;2023-05-03T03:26:59;23.50;37.70
67194;DHT22;54121;53.508;49.422;2023-05-03T03:29:28;24.10;36.90
67194;DHT22;54121;53.508;49.422;2023-05-03T03:31:57;24.80;35.60
67194;DHT22;54121;53.508;49.422;2023-05-03T03:34:23;25.20;34.10
67194;DHT22;54121;53.508;49.422;2023-05-03T03:36:52;24.90;34.20
67194;DHT22;54121;53.508;49.422;2023-05-03T03:39:18;25.30;33.60
67194;DHT22;54121;53.508;49.422;2023-05-03T03:41:46;25.80;32.20
67194;DHT22;54121;53.508;49.422;2023-05-03T03:44:13;25.70;32.30
67194;DHT22;54121;53.508;49.422;2023-05-03T03:46:43;25.60;32.40
67194;DHT22;54121;53.508;49.422;2023-05-03T03:49:12;26.10;32.00
67194;DHT22;54121;53.508;49.422;2023-05-03T03:51:38;26.70;31.70
67194;DHT22;54121;53.508;49.422;2023-05-03T03:54:06;26.80;30.20
67194;DHT22;54121;53.508;49.422;2023-05-03T03:56:35;26.30;30.50
67194;DHT22;54121;53.508;49.422;2023-05-03T03:59:04;26.10;31.60
67194;DHT22;54121;53.508;49.422;2023-05-03T04:01:33;26.40;31.20
67194;DHT22;54121;53.508;49.422;2023-05-03T04:04:01;27.10;29.50
67194;DHT22;54121;53.508;49.422;2023-05-03T04:06:28;27.20;29.10
67194;DHT22;54121;53.508;49.422;2023-05-03T04:08:54;27.00;29.30
67194;DHT22;54121;53.508;49.422;2023-05-03T04:11:23;26.90;29.50
67194;DHT22;54121;53.508;49.422;2023-05-03T04:13:49;26.70;29.90
67194;DHT22;54121;53.508;49.422;2023-05-03T04:16:16;26.90;29.50
67194;DHT22;54121;53.508;49.422;2023-05-03T04:18:45;26.60;29.90
67194;DHT22;54121;53.508;49.422;2023-05-03T04:21:16;26.60;29.80
67194;DHT22;54121;53.508;49.422;2023-05-03T04:23:45;26.80;29.70
67194;DHT22;54121;53.508;49.422;2023-05-03T04:26:12;26.80;29.60
67194;DHT22;54121;53.508;49.422;2023-05-03T04:28:38;26.70;29.90
67194;DHT22;54121;53.508;49.422;2023-05-03T04:31:09;27.00;29.40
67194;DHT22;54121;53.508;49.422;2023-05-03T04:33:41;27.00;29.30
67194;DHT22;54121;53.508;49.422;2023-05-03T04:36:08;27.30;28.90
67194;DHT22;54121;53.508;49.422;2023-05-03T04:38:34;27.40;28.80
67194;DHT22;54121;53.508;49.422;2023-05-03T04:41:03;27.40;28.50
67194;DHT22;54121;53.508;49.422;2023-05-03T04:43:29;27.70;27.90
67194;DHT22;54121;53.508;49.422;2023-05-03T04:46:00;27.40;28.70
67194;DHT22;54121;53.508;49.422;2023-05-03T04:48:30;27.50;29.60
67194;DHT22;54121;53.508;49.422;2023-05-03T04:50:57;27.40;29.00
67194;DHT22;54121;53.508;49.422;2023-05-03T04:53:25;27.50;28.80
67194;DHT22;54121;53.508;49.422;2023-05-03T04:55:51;28.10;27.70
67194;DHT22;54121;53.508;49.422;2023-05-03T04:58:20;28.50;27.00
67194;DHT22;54121;53.508;49.422;2023-05-03T05:00:51;28.70;26.40
67194;DHT22;54121;53.508;49.422;2023-05-03T05:03:19;28.90;26.40
67194;DHT22;54121;53.508;49.422;2023-05-03T05:05:46;29.20;26.00
67194;DHT22;54121;53.508;49.422;2023-05-03T05:08:12;28.80;26.40
67194;DHT22;54121;53.508;49.422;2023-05-03T05:10:44;28.80;25.90
67194;DHT22;54121;53.508;49.422;2023-05-03T05:13:13;28.70;26.20
67194;DHT22;54121;53.508;49.422;2023-05-03T05:15:44;28.70;26.00
67194;DHT22;54121;53.508;49.422;2023-05-03T05:18:10;28.80;26.10
67194;DHT22;54121;53.508;49.422;2023-05-03T05:20:38;28.30;26.70
67194;DHT22;54121;53.508;49.422;2023-05-03T05:23:07;28.70;26.30
67194;DHT22;54121;53.508;49.422;2023-05-03T05:25:35;29.00;26.20
67194;DHT22;54121;53.508;49.422;2023-05-03T05:28:04;28.70;26.30
67194;DHT22;54121;53.508;49.422;2023-05-03T05:30:33;28.60;26.20
67194;DHT22;54121;53.508;49.422;2023-05-03T05:32:59;29.60;25.30
67194;DHT22;54121;53.508;49.422;2023-05-03T05:35:28;29.90;24.40
67194;DHT22;54121;53.508;49.422;2023-05-03T05:37:56;29.70;24.30
67194;DHT22;54121;53.508;49.422;2023-05-03T05:40:23;29.40;24.90
67194;DHT22;54121;53.508;49.422;2023-05-03T05:42:51;30.00;23.90
67194;DHT22;54121;53.508;49.422;2023-05-03T05:45:20;30.00;23.90
67194;DHT22;54121;53.508;49.422;2023-05-03T05:47:49;30.20;23.70
67194;DHT22;54121;53.508;49.422;2023-05-03T05:50:16;30.10;23.90
67194;DHT22;54121;53.508;49.422;2023-05-03T05:52:42;30.00;23.90
67194;DHT22;54121;53.508;49.422;2023-05-03T05:55:13;29.20;25.00
67194;DHT22;54121;53.508;49.422;2023-05-03T05:57:42;29.60;24.30
67194;DHT22;54121;53.508;49.422;2023-05-03T06:00:08;29.30;24.60
67194;DHT22;54121;53.508;49.422;2023-05-03T06:02:41;29.20;25.00
67194;DHT22;54121;53.508;49.422;2023-05-03T06:05:11;29.30;24.80
67194;DHT22;54121;53.508;49.422;2023-05-03T06:07:40;29.40;25.10
67194;DHT22;54121;53.508;49.422;2023-05-03T06:10:06;29.40;25.00
67194;DHT22;54121;53.508;49.422;2023-05-03T06:12:35;29.70;24.90
67194;DHT22;54121;53.508;49.422;2023-05-03T06:15:04;29.80;24.20
67194;DHT22;54121;53.508;49.422;2023-05-03T06:17:35;29.60;24.70
67194;DHT22;54121;53.508;49.422;2023-05-03T06:20:02;29.40;24.70
67194;DHT22;54121;53.508;49.422;2023-05-03T06:22:31;30.10;24.00
67194;DHT22;54121;53.508;49.422;2023-05-03T06:24:57;29.70;24.30
67194;DHT22;54121;53.508;49.422;2023-05-03T06:27:23;30.40;23.80
67194;DHT22;54121;53.508;49.422;2023-05-03T06:29:52;29.70;24.20
67194;DHT22;54121;53.508;49.422;2023-05-03T06:32:18;30.60;23.40
67194;DHT22;54121;53.508;49.422;2023-05-03T06:34:50;30.20;23.30
67194;DHT22;54121;53.508;49.422;2023-05-03T06:37:17;30.50;23.40
67194;DHT22;54121;53.508;49.422;2023-05-03T06:39:44;30.50;23.40
67194;DHT22;54121;53.508;49.422;2023-05-03T06:42:13;30.60;23.20
67194;DHT22;54121;53.508;49.422;2023-05-03T06:44:39;30.90;22.60
67194;DHT22;54121;53.508;49.422;2023-05-03T06:47:05;30.40;23.30
67194;DHT22;54121;53.508;49.422;2023-05-03T06:49:34;30.90;23.20
67194;DHT22;54121;53.508;49.422;2023-05-03T06:52:00;30.40;23.50
67194;DHT22;54121;53.508;49.422;2023-05-03T06:54:29;31.20;22.90
67194;DHT22;54121;53.508;49.422;2023-05-03T06:56:55;31.70;22.30
67194;DHT22;54121;53.508;49.422;2023-05-03T06:59:26;31.60;21.50
67194;DHT22;54121;53.508;49.422;2023-05-03T07:01:55;31.30;22.40
67194;DHT22;54121;53.508;49.422;2023-05-03T07:04:21;31.50;22.40
67194;DHT22;54121;53.508;49.422;2023-05-03T07:06:47;32.20;21.50
67194;DHT22;54121;53.508;49.422;2023-05-03T07:09:16;31.90;22.20
67194;DHT22;54121;53.508;49.422;2023-05-03T07:11:43;32.20;21.00
67194;DHT22;54121;53.508;49.422;2023-05-03T07:14:15;32.40;21.20
67194;DHT22;54121;53.508;49.422;2023-05-03T07:16:47;33.20;20.80
67194;DHT22;54121;53.508;49.422;2023-05-03T07:19:15;33.20;20.50
67194;DHT22;54121;53.508;49.422;2023-05-03T07:21:44;33.30;20.00
67194;DHT22;54121;53.508;49.422;2023-05-03T07:24:13;33.80;20.00
67194;DHT22;54121;53.508;49.422;2023-05-03T07:26:39;33.60;19.50
67194;DHT22;54121;53.508;49.422;2023-05-03T07:29:07;33.30;20.40
67194;DHT22;54121;53.508;49.422;2023-05-03T07:31:36;33.90;19.70
67194;DHT22;54121;53.508;49.422;2023-05-03T07:34:03;33.20;20.70
67194;DHT22;54121;53.508;49.422;2023-05-03T07:36:29;33.60;20.00
67194;DHT22;54121;53.508;49.422;2023-05-03T07:38:57;33.60;19.90
67194;DHT22;54121;53.508;49.422;2023-05-03T07:41:27;34.30;19.00
67194;DHT22;54121;53.508;49.422;2023-05-03T07:43:55;34.10;19.10
67194;DHT22;54121;53.508;49.422;2023-05-03T07:46:25;34.10;19.10
67194;DHT22;54121;53.508;49.422;2023-05-03T07:48:52;34.90;18.80
67194;DHT22;54121;53.508;49.422;2023-05-03T07:51:18;34.30;19.00
67194;DHT22;54121;53.508;49.422;2023-05-03T07:53:46;34.70;18.30
67194;DHT22;54121;53.508;49.422;2023-05-03T07:56:15;34.70;18.60
67194;DHT22;54121;53.508;49.422;2023-05-03T07:58:47;35.20;17.60
67194;DHT22;54121;53.508;49.422;2023-05-03T08:01:15;35.40;17.40
67194;DHT22;54121;53.508;49.422;2023-05-03T08:03:44;35.20;18.60
67194;DHT22;54121;53.508;49.422;2023-05-03T08:06:15;35.10;18.10
67194;DHT22;54121;53.508;49.422;2023-05-03T08:08:42;35.40;17.90
67194;DHT22;54121;53.508;49.422;2023-05-03T08:11:11;36.40;16.60
67194;DHT22;54121;53.508;49.422;2023-05-03T08:13:37;35.50;17.00
67194;DHT22;54121;53.508;49.422;2023-05-03T08:16:09;35.30;17.00
67194;DHT22;54121;53.508;49.422;2023-05-03T08:18:37;35.40;17.10
67194;DHT22;54121;53.508;49.422;2023-05-03T08:21:08;36.20;16.60
67194;DHT22;54121;53.508;49.422;2023-05-03T08:23:36;36.20;16.30
67194;DHT22;54121;53.508;49.422;2023-05-03T08:26:05;36.40;16.30
67194;DHT22;54121;53.508;49.422;2023-05-03T08:28:34;36.80;15.60
67194;DHT22;54121;53.508;49.422;2023-05-03T08:31:01;36.50;16.20
67194;DHT22;54121;53.508;49.422;2023-05-03T08:33:32;37.20;15.60
67194;DHT22;54121;53.508;49.422;2023-05-03T08:36:03;36.70;15.50
67194;DHT22;54121;53.508;49.422;2023-05-03T08:38:34;36.20;15.80
67194;DHT22;54121;53.508;49.422;2023-05-03T08:41:03;36.60;15.80
67194;DHT22;54121;53.508;49.422;2023-05-03T08:43:34;35.90;16.10
67194;DHT22;54121;53.508;49.422;2023-05-03T08:46:01;35.80;15.90
67194;DHT22;54121;53.508;49.422;2023-05-03T08:48:28;36.10;16.00
67194;DHT22;54121;53.508;49.422;2023-05-03T08:50:57;36.60;15.60
67194;DHT22;54121;53.508;49.422;2023-05-03T08:53:26;36.70;15.60
67194;DHT22;54121;53.508;49.422;2023-05-03T08:55:54;36.10;15.90
67194;DHT22;54121;53.508;49.422;2023-05-03T08:58:25;36.20;16.10
67194;DHT22;54121;53.508;49.422;2023-05-03T09:04:03;36.20;16.00
67194;DHT22;54121;53.508;49.422;2023-05-03T09:06:32;36.10;15.40
67194;DHT22;54121;53.508;49.422;2023-05-03T09:09:01;36.60;15.00
67194;DHT22;54121;53.508;49.422;2023-05-03T09:11:30;36.40;15.70
67194;DHT22;54121;53.508;49.422;2023-05-03T09:14:13;36.30;14.90
67194;DHT22;54121;53.508;49.422;2023-05-03T09:16:40;36.30;14.80
67194;DHT22;54121;53.508;49.422;2023-05-03T09:19:10;36.60;14.90
67194;DHT22;54121;53.508;49.422;2023-05-03T09:21:37;37.00;14.50
67194;DHT22;54121;53.508;49.422;2023-05-03T09:24:16;37.40;14.20
67194;DHT22;54121;53.508;49.422;2023-05-03T09:26:43;37.60;13.60
67194;DHT22;54121;53.508;49.422;2023-05-03T09:29:24;37.90;14.00
67194;DHT22;54121;53.508;49.422;2023-05-03T09:31:57;37.50;14.00
67194;DHT22;54121;53.508;49.422;2023-05-03T09:34:27;37.90;14.50
67194;DHT22;54121;53.508;49.422;2023-05-03T09:36:53;37.30;14.50
67194;DHT22;54121;53.508;49.422;2023-05-03T09:39:24;38.60;13.40
67194;DHT22;54121;53.508;49.422;2023-05-03T09:41:52;38.50;13.40
67194;DHT22;54121;53.508;49.422;2023-05-03T09:44:44;38.20;13.80
67194;DHT22;54121;53.508;49.422;2023-05-03T09:47:08;38.80;13.10
67194;DHT22;54121;53.508;49.422;2023-05-03T09:49:40;39.20;13.50
67194;DHT22;54121;53.508;49.422;2023-05-03T09:52:10;38.80;12.70
67194;DHT22;54121;53.508;49.422;2023-05-03T09:54:39;38.80;13.00
67194;DHT22;54121;53.508;49.422;2023-05-03T09:57:06;39.40;12.50
67194;DHT22;54121;53.508;49.422;2023-05-03T09:59:36;40.00;12.40
67194;DHT22;54121;53.508;49.422;2023-05-03T10:02:07;39.10;12.60
67194;DHT22;54121;53.508;49.422;2023-05-03T10:05:08;39.60;12.50
67194;DHT22;54121;53.508;49.422;2023-05-03T10:07:30;39.80;12.50
67194;DHT22;54121;53.508;49.422;2023-05-03T10:09:59;40.30;12.10
67194;DHT22;54121;53.508;49.422;2023-05-03T10:12:28;40.00;11.90
67194;DHT22;54121;53.508;49.422;2023-05-03T10:14:58;40.70;11.60
67194;DHT22;54121;53.508;49.422;2023-05-03T10:17:27;40.00;12.00
67194;DHT22;54121;53.508;49.422;2023-05-03T10:20:15;39.60;12.10
67194;DHT22;54121;53.508;49.422;2023-05-03T10:25:33;39.70;12.10
67194;DHT22;54121;53.508;49.422;2023-05-03T10:28:06;39.00;12.70
67194;DHT22;54121;53.508;49.422;2023-05-03T10:30:37;39.90;12.60
67194;DHT22;54121;53.508;49.422;2023-05-03T10:35:39;40.20;11.70
67194;DHT22;54121;53.508;49.422;2023-05-03T10:38:19;40.90;11.30
67194;DHT22;54121;53.508;49.422;2023-05-03T10:40:50;41.00;11.30
67194;DHT22;54121;53.508;49.422;2023-05-03T10:45:56;41.20;11.30
67194;DHT22;54121;53.508;49.422;2023-05-03T10:48:26;42.00;10.60
67194;DHT22;54121;53.508;49.422;2023-05-03T10:50:56;41.20;10.80
67194;DHT22;54121;53.508;49.422;2023-05-03T10:56:07;40.70;11.60
67194;DHT22;54121;53.508;49.422;2023-05-03T11:01:06;40.90;12.10
67194;DHT22;54121;53.508;49.422;2023-05-03T11:09:00;41.20;10.60
67194;DHT22;54121;53.508;49.422;2023-05-03T11:11:29;40.80;10.60
67194;DHT22;54121;53.508;49.422;2023-05-03T11:13:58;41.20;10.50
67194;DHT22;54121;53.508;49.422;2023-05-03T11:16:27;41.20;10.70
67194;DHT22;54121;53.508;49.422;2023-05-03T11:18:54;41.40;10.60
67194;DHT22;54121;53.508;49.422;2023-05-03T11:21:22;41.40;10.80
67194;DHT22;54121;53.508;49.422;2023-05-03T11:23:51;42.30;10.20
67194;DHT22;54121;53.508;49.422;2023-05-03T11:26:17;41.20;10.10
67194;DHT22;54121;53.508;49.422;2023-05-03T11:28:53;40.90;11.10
67194;DHT22;54121;53.508;49.422;2023-05-03T11:31:21;41.00;11.10
67194;DHT22;54121;53.508;49.422;2023-05-03T11:33:50;41.20;10.80
67194;DHT22;54121;53.508;49.422;2023-05-03T11:36:19;41.30;10.90
67194;DHT22;54121;53.508;49.422;2023-05-03T11:38:47;42.50;9.90
67194;DHT22;54121;53.508;49.422;2023-05-03T11:41:14;42.00;9.40
67194;DHT22;54121;53.508;49.422;2023-05-03T11:43:44;41.40;10.30
67194;DHT22;54121;53.508;49.422;2023-05-03T11:46:12;41.90;10.10
67194;DHT22;54121;53.508;49.422;2023-05-03T11:48:43;41.90;9.90
67194;DHT22;54121;53.508;49.422;2023-05-03T11:51:18;42.80;9.60
67194;DHT22;54121;53.508;49.422;2023-05-03T11:53:46;42.50;9.70
67194;DHT22;54121;53.508;49.422;2023-05-03T11:56:15;42.60;9.40
67194;DHT22;54121;53.508;49.422;2023-05-03T11:58:54;41.40;9.90
67194;DHT22;54121;53.508;49.422;2023-05-03T12:01:27;40.80;10.70
67194;DHT22;54121;53.508;49.422;2023-05-03T12:06:20;41.90;10.10
67194;DHT22;54121;53.508;49.422;2023-05-03T12:08:49;41.40;10.70
67194;DHT22;54121;53.508;49.422;2023-05-03T12:11:15;41.40;10.10
67194;DHT22;54121;53.508;49.422;2023-05-03T12:13:42;41.70;10.30
67194;DHT22;54121;53.508;49.422;2023-05-03T12:16:11;41.20;10.00
67194;DHT22;54121;53.508;49.422;2023-05-03T12:18:47;41.10;10.50
67194;DHT22;54121;53.508;49.422;2023-05-03T12:21:19;41.30;10.40
67194;DHT22;54121;53.508;49.422;2023-05-03T12:23:51;40.80;10.60
67194;DHT22;54121;53.508;49.422;2023-05-03T12:26:18;40.70;10.80
67194;DHT22;54121;53.508;49.422;2023-05-03T12:28:49;41.70;10.10
67194;DHT22;54121;53.508;49.422;2023-05-03T12:31:16;40.90;10.70
67194;DHT22;54121;53.508;49.422;2023-05-03T12:33:47;41.10;10.30
67194;DHT22;54121;53.508;49.422;2023-05-03T12:36:18;40.50;10.80
67194;DHT22;54121;53.508;49.422;2023-05-03T12:38:44;40.90;10.60
67194;DHT22;54121;53.508;49.422;2023-05-03T12:41:10;40.40;10.60
67194;DHT22;54121;53.508;49.422;2023-05-03T12:43:40;39.90;11.10
67194;DHT22;54121;53.508;49.422;2023-05-03T12:46:09;39.80;11.00
67194;DHT22;54121;53.508;49.422;2023-05-03T12:48:38;39.80;11.10
67194;DHT22;54121;53.508;49.422;2023-05-03T12:51:04;40.20;11.30
67194;DHT22;54121;53.508;49.422;2023-05-03T12:53:33;39.80;11.70
67194;DHT22;54121;53.508;49.422;2023-05-03T12:56:00;39.30;11.50
67194;DHT22;54121;53.508;49.422;2023-05-03T12:58:29;39.80;11.50
67194;DHT22;54121;53.508;49.422;2023-05-03T13:00:58;39.90;11.30
67194;DHT22;54121;53.508;49.422;2023-05-03T13:03:28;40.50;10.90
67194;DHT22;54121;53.508;49.422;2023-05-03T13:05:54;40.30;11.20
67194;DHT22;54121;53.508;49.422;2023-05-03T13:08:22;39.40;11.50
67194;DHT22;54121;53.508;49.422;2023-05-03T13:10:49;39.60;11.50
67194;DHT22;54121;53.508;49.422;2023-05-03T13:13:18;39.80;11.30
67194;DHT22;54121;53.508;49.422;2023-05-03T13:15:47;38.60;12.10
67194;DHT22;54121;53.508;49.422;2023-05-03T13:18:18;39.20;12.20
67194;DHT22;54121;53.508;49.422;2023-05-03T13:20:47;39.10;12.00
67194;DHT22;54121;53.508;49.422;2023-05-03T13:23:15;39.30;11.80
67194;DHT22;54121;53.508;49.422;2023-05-03T13:25:43;38.80;12.30
67194;DHT22;54121;53.508;49.422;2023-05-03T13:28:12;39.50;11.90
67194;DHT22;54121;53.508;49.422;2023-05-03T13:30:38;39.00;11.80
67194;DHT22;54121;53.508;49.422;2023-05-03T13:33:07;39.10;11.90
67194;DHT22;54121;53.508;49.422;2023-05-03T13:35:36;38.60;12.10
67194;DHT22;54121;53.508;49.422;2023-05-03T13:38:02;39.10;12.30
67194;DHT22;54121;53.508;49.422;2023-05-03T13:40:28;39.50;11.90
67194;DHT22;54121;53.508;49.422;2023-05-03T13:42:55;38.00;12.60
67194;DHT22;54121;53.508;49.422;2023-05-03T13:45:26;38.00;12.60
67194;DHT22;54121;53.508;49.422;2023-05-03T13:47:55;38.30;12.50
67194;DHT22;54121;53.508;49.422;2023-05-03T13:50:23;38.20;12.60
67194;DHT22;54121;53.508;49.422;2023-05-03T13:52:50;39.20;12.20
67194;DHT22;54121;53.508;49.422;2023-05-03T13:55:16;39.30;12.20
67194;DHT22;54121;53.508;49.422;2023-05-03T13:57:44;38.50;12.60
67194;DHT22;54121;53.508;49.422;2023-05-03T14:00:11;38.10;12.50
67194;DHT22;54121;53.508;49.422;2023-05-03T14:02:40;37.90;12.70
67194;DHT22;54121;53.508;49.422;2023-05-03T14:05:07;37.10;13.40
67194;DHT22;54121;53.508;49.422;2023-05-03T14:07:35;36.80;13.50
67194;DHT22;54121;53.508;49.422;2023-05-03T14:10:08;37.50;13.20
67194;DHT22;54121;53.508;49.422;2023-05-03T14:12:34;37.10;13.40
67194;DHT22;54121;53.508;49.422;2023-05-03T14:15:04;37.40;13.50
67194;DHT22;54121;53.508;49.422;2023-05-03T14:17:31;37.10;14.00
67194;DHT22;54121;53.508;49.422;2023-05-03T14:19:57;36.90;13.90
67194;DHT22;54121;53.508;49.422;2023-05-03T14:22:26;37.10;13.90
67194;DHT22;54121;53.508;49.422;2023-05-03T14:24:55;36.80;14.40
67194;DHT22;54121;53.508;49.422;2023-05-03T14:27:21;36.70;14.10
67194;DHT22;54121;53.508;49.422;2023-05-03T14:29:47;37.20;13.70
67194;DHT22;54121;53.508;49.422;2023-05-03T14:32:14;36.60;14.30
67194;DHT22;54121;53.508;49.422;2023-05-03T14:34:43;37.00;13.90
67194;DHT22;54121;53.508;49.422;2023-05-03T14:37:09;37.60;13.60
67194;DHT22;54121;53.508;49.422;2023-05-03T14:39:35;36.70;14.00
67194;DHT22;54121;53.508;49.422;2023-05-03T14:42:04;37.20;14.00
67194;DHT22;54121;53.508;49.422;2023-05-03T14:44:30;36.80;14.00
67194;DHT22;54121;53.508;49.422;2023-05-03T14:46:56;36.50;14.40
67194;DHT22;54121;53.508;49.422;2023-05-03T14:49:24;36.00;14.70
67194;DHT22;54121;53.508;49.422;2023-05-03T14:51:50;35.40;15.40
67194;DHT22;54121;53.508;49.422;2023-05-03T14:54:21;35.80;15.10
67194;DHT22;54121;53.508;49.422;2023-05-03T14:56:50;35.70;15.10
67194;DHT22;54121;53.508;49.422;2023-05-03T14:59:19;36.00;14.70
67194;DHT22;54121;53.508;49.422;2023-05-03T15:01:49;36.30;14.10
67194;DHT22;54121;53.508;49.422;2023-05-03T15:04:21;35.40;14.80
67194;DHT22;54121;53.508;49.422;2023-05-03T15:06:48;35.70;14.80
67194;DHT22;54121;53.508;49.422;2023-05-03T15:09:17;35.00;15.20
67194;DHT22;54121;53.508;49.422;2023-05-03T15:11:45;35.10;15.50
67194;DHT22;54121;53.508;49.422;2023-05-03T15:14:14;35.20;15.00
67194;DHT22;54121;53.508;49.422;2023-05-03T15:16:42;35.80;14.70
67194;DHT22;54121;53.508;49.422;2023-05-03T15:19:09;34.70;15.50
67194;DHT22;54121;53.508;49.422;2023-05-03T15:21:45;35.30;15.20
67194;DHT22;54121;53.508;49.422;2023-05-03T15:24:12;34.90;15.20
67194;DHT22;54121;53.508;49.422;2023-05-03T15:26:43;34.90;15.30
67194;DHT22;54121;53.508;49.422;2023-05-03T15:29:09;34.50;15.60
67194;DHT22;54121;53.508;49.422;2023-05-03T15:31:38;34.30;16.60
67194;DHT22;54121;53.508;49.422;2023-05-03T15:34:07;34.40;15.70
67194;DHT22;54121;53.508;49.422;2023-05-03T15:36:35;34.80;15.20
67194;DHT22;54121;53.508;49.422;2023-05-03T15:39:02;34.30;15.70
67194;DHT22;54121;53.508;49.422;2023-05-03T15:41:31;33.70;16.20
67194;DHT22;54121;53.508;49.422;2023-05-03T15:43:59;33.50;16.20
67194;DHT22;54121;53.508;49.422;2023-05-03T15:46:32;33.20;16.60
67194;DHT22;54121;53.508;49.422;2023-05-03T15:49:02;33.00;17.50
67194;DHT22;54121;53.508;49.422;2023-05-03T15:51:34;32.90;17.00
67194;DHT22;54121;53.508;49.422;2023-05-03T15:54:01;32.40;17.40